Time;durP1;ratioP1;P1;durP2;ratioP2;P2;SDS_P1;SDS_P2;PMS_P1;PMS_P2;Temp;Humidity;BMP_temperature;BMP_pressure;BME280_temperature;BME280_humidity;BME280_pressure;Samples;Min_cycle;Max_cycle;Signal;HPM_P1;HPM_P2
2022/08/21 00:01:17;;;;;;;12.65;6.72;;;15.70;99.90;;;-144.05;78.19;125687.94;4958078;29;20054;-88
2022/08/21 00:03:44;;;;;;;12.50;6.30;;;15.70;99.90;;;-144.05;78.11;125687.94;4957954;29;20027;-88
2022/08/21 00:06:11;;;;;;;11.50;6.60;;;15.70;99.90;;;-144.05;78.16;125687.94;4941418;29;20050;-90
2022/08/21 00:08:37;;;;;;;14.82;6.70;;;15.70;99.90;;;-144.05;78.23;125687.94;4958320;29;20058;-89
2022/08/21 00:11:05;;;;;;;15.07;7.25;;;15.70;99.90;;;-144.05;78.21;125687.94;4959925;29;20493;-89
2022/08/21 00:13:31;;;;;;;11.73;6.43;;;15.70;99.90;;;-144.05;78.00;125687.94;4958751;29;20513;-88
2022/08/21 00:15:59;;;;;;;10.07;6.38;;;15.70;99.90;;;-144.05;78.31;125687.94;4942724;29;20400;-89
2022/08/21 00:18:26;;;;;;;9.00;6.22;;;15.60;99.90;;;-144.05;78.32;125687.94;4943574;29;20035;-87
2022/08/21 00:20:52;;;;;;;13.23;6.60;;;15.60;99.90;;;-144.05;78.60;125687.94;4950173;29;20027;-88
2022/08/21 00:23:18;;;;;;;16.05;6.75;;;15.70;99.90;;;-144.05;78.56;125687.94;4942266;29;20027;-89
2022/08/21 00:25:45;;;;;;;14.57;7.47;;;15.70;99.90;;;-144.05;78.53;125687.94;4957406;29;20031;-87
2022/08/21 00:28:13;;;;;;;13.70;7.07;;;15.80;99.90;;;-144.05;78.30;125687.94;4941260;29;20062;-87
2022/08/21 00:30:42;;;;;;;13.65;6.75;;;15.80;99.90;;;-144.05;78.18;125687.94;4941502;29;20126;-90
2022/08/21 00:33:11;;;;;;;12.20;7.15;;;15.80;99.90;;;-144.05;78.50;125687.94;4940577;29;20039;-87
2022/08/21 00:35:41;;;;;;;10.98;7.32;;;15.90;99.90;;;-144.05;78.20;125687.94;4941713;29;20747;-90
2022/08/21 00:38:09;;;;;;;14.18;7.95;;;15.90;99.90;;;-144.05;77.80;125687.94;4940653;29;20035;-88
2022/08/21 00:40:55;;;;;;;17.27;7.72;;;16.00;99.90;;;-144.05;77.84;125687.94;4941431;29;20023;-88
2022/08/21 00:43:29;;;;;;;14.68;7.35;;;16.00;99.90;;;-144.05;77.54;125687.94;4959010;29;20097;-87
2022/08/21 00:45:57;;;;;;;11.23;6.80;;;16.00;99.90;;;-144.05;77.44;125687.94;4958692;29;20042;-88
2022/08/21 00:48:25;;;;;;;12.20;6.88;;;16.10;99.90;;;-144.05;77.12;125687.94;4940809;29;20122;-88
2022/08/21 00:51:25;;;;;;;11.98;7.25;;;16.10;99.90;;;-144.05;76.96;125687.94;4941631;29;20114;-88
2022/08/21 00:54:00;;;;;;;15.82;7.30;;;16.00;99.90;;;-144.05;77.08;125687.94;4940936;29;20115;-88
2022/08/21 00:56:28;;;;;;;15.07;7.68;;;16.00;99.90;;;-144.05;77.12;125687.94;4959027;29;20478;-87
2022/08/21 00:58:58;;;;;;;12.27;7.88;;;15.90;99.90;;;-144.05;77.41;125687.94;4942080;29;20035;-87
2022/08/21 01:01:24;;;;;;;12.95;7.45;;;15.80;99.90;;;-144.05;77.54;125687.94;4941574;29;20027;-87
2022/08/21 01:03:51;;;;;;;14.40;7.53;;;15.80;99.90;;;-144.05;78.13;125687.94;4942063;29;20041;-88
2022/08/21 01:06:17;;;;;;;13.45;7.75;;;15.70;99.90;;;-144.05;78.09;125687.94;4941880;29;20042;-88
2022/08/21 01:08:45;;;;;;;17.65;8.13;;;15.70;99.90;;;-144.05;78.59;125687.94;4958119;29;20417;-89
2022/08/21 01:11:11;;;;;;;16.13;8.63;;;15.70;99.90;;;-144.05;78.50;125687.94;4942584;29;20038;-89
2022/08/21 01:13:45;;;;;;;16.52;7.40;;;15.70;99.90;;;-144.05;78.56;125687.94;4942515;29;20032;-89
2022/08/21 01:16:18;;;;;;;16.02;7.38;;;15.70;99.90;;;-144.05;78.40;125687.94;4942134;29;20041;-87
2022/08/21 01:18:47;;;;;;;15.13;7.57;;;15.70;99.90;;;-144.05;78.36;125687.94;4959785;29;20074;-88
2022/08/21 01:21:21;;;;;;;16.10;8.02;;;15.80;99.90;;;-144.05;78.11;125687.94;4943131;29;20485;-88
2022/08/21 01:23:53;;;;;;;10.48;6.82;;;15.80;99.90;;;-144.05;78.34;125687.94;4960468;29;20504;-89
2022/08/21 01:26:31;;;;;;;15.52;6.40;;;15.80;99.90;;;-144.05;78.20;125687.94;4944538;29;20394;-89
2022/08/21 01:29:14;;;;;;;13.55;6.25;;;15.90;99.90;;;-144.05;77.91;125687.94;4961428;29;20042;-89
2022/08/21 01:31:40;;;;;;;14.40;5.45;;;15.90;99.90;;;-144.05;77.61;125687.94;4944374;29;20031;-91
2022/08/21 01:34:10;;;;;;;12.98;6.40;;;16.00;99.90;;;-144.05;77.32;125687.94;4960652;29;20035;-88
2022/08/21 01:36:37;;;;;;;9.18;5.97;;;16.10;99.90;;;-144.05;77.37;125687.94;4944283;29;20036;-90
2022/08/21 01:39:05;;;;;;;14.05;6.22;;;16.10;99.90;;;-144.05;77.14;125687.94;4942695;29;20060;-89
2022/08/21 01:41:31;;;;;;;9.35;6.00;;;16.10;99.90;;;-144.05;76.81;125687.94;4942666;29;20102;-88
2022/08/21 01:43:57;;;;;;;10.38;5.38;;;16.20;99.90;;;-144.05;76.79;125687.94;4944151;29;20035;-89
2022/08/21 01:46:23;;;;;;;13.05;6.10;;;16.20;99.90;;;-144.05;76.66;125687.94;4946188;29;20169;-89
2022/08/21 01:48:49;;;;;;;13.45;5.47;;;16.30;99.90;;;-144.05;76.54;125687.94;4944710;29;20035;-89
2022/08/21 01:51:15;;;;;;;10.30;5.03;;;16.30;99.90;;;-144.05;76.25;125687.94;4942140;29;20054;-87
2022/08/21 01:53:41;;;;;;;12.90;5.50;;;16.20;99.90;;;-144.05;76.39;125687.94;4940668;29;20490;-89
2022/08/21 01:56:14;;;;;;;8.70;5.15;;;16.20;99.90;;;-144.05;76.42;125687.94;4940215;29;20043;-88
2022/08/21 01:58:44;;;;;;;13.60;6.03;;;16.20;99.90;;;-144.05;76.49;125687.94;4939968;28;20027;-88
2022/08/21 02:01:10;;;;;;;10.32;4.93;;;16.10;99.90;;;-144.05;76.77;125687.94;4961242;29;20035;-88
2022/08/21 02:03:37;;;;;;;10.27;5.10;;;16.00;99.90;;;-144.05;77.11;125687.94;4943740;29;20030;-88
2022/08/21 02:06:06;;;;;;;11.65;5.15;;;15.90;99.90;;;-144.05;77.46;125687.94;4960218;29;20086;-87
2022/08/21 02:08:33;;;;;;;10.85;5.55;;;15.80;99.90;;;-144.05;77.90;125687.94;4943513;29;20063;-87
2022/08/21 02:11:00;;;;;;;8.02;5.25;;;15.70;99.90;;;-144.05;78.05;125687.94;4943599;29;20057;-86
2022/08/21 02:13:28;;;;;;;11.57;5.72;;;15.70;99.90;;;-144.05;78.26;125687.94;4945209;29;20028;-87
2022/08/21 02:15:53;;;;;;;10.75;5.55;;;15.60;99.90;;;-144.05;78.34;125687.94;4944638;29;20035;-89
2022/08/21 02:18:19;;;;;;;9.30;5.38;;;15.60;99.90;;;-144.05;78.63;125687.94;4944525;29;20047;-87
2022/08/21 02:20:48;;;;;;;13.55;5.80;;;15.50;99.90;;;-144.05;78.80;125687.94;4961696;29;20106;-89
2022/08/21 02:23:15;;;;;;;11.27;6.10;;;15.40;99.90;;;-144.05;78.97;125687.94;4946043;29;20033;-88
2022/08/21 02:25:42;;;;;;;8.88;5.65;;;15.40;99.90;;;-144.05;79.13;125687.94;4959666;29;20047;-87
2022/08/21 02:28:14;;;;;;;10.00;5.28;;;15.30;99.90;;;-144.05;79.46;125687.94;4949744;29;20026;-88
2022/08/21 02:30:46;;;;;;;10.88;5.55;;;15.30;99.90;;;-144.05;79.74;125687.94;4979255;29;20031;-88
2022/08/21 02:33:15;;;;;;;12.02;6.82;;;15.30;99.90;;;-144.05;80.22;125687.94;4961600;29;20107;-88
2022/08/21 02:35:44;;;;;;;10.60;6.43;;;15.30;99.90;;;-144.05;80.22;125687.94;4959950;29;20035;-87
2022/08/21 02:38:23;;;;;;;13.27;6.80;;;15.20;99.90;;;-144.05;80.73;125687.94;4943267;29;20445;-88
2022/08/21 02:40:53;;;;;;;15.13;6.30;;;15.10;99.90;;;-144.05;80.79;125687.94;4959216;29;20031;-89
2022/08/21 02:43:23;;;;;;;9.75;6.25;;;15.10;99.90;;;-144.05;80.99;125687.94;4943181;29;20039;-89
2022/08/21 02:45:51;;;;;;;10.55;6.50;;;15.00;99.90;;;-144.05;81.07;125687.94;4960035;29;20031;-87
2022/08/21 02:48:23;;;;;;;13.10;7.20;;;15.00;99.90;;;-144.05;80.93;125687.94;4942799;29;20031;-87
2022/08/21 02:51:08;;;;;;;12.10;6.57;;;15.00;99.90;;;-144.05;80.75;125687.94;4958666;29;20031;-89
2022/08/21 02:53:35;;;;;;;11.45;6.65;;;15.00;99.90;;;-144.05;81.05;125687.94;4943640;29;20057;-90
2022/08/21 02:56:08;;;;;;;13.45;6.85;;;15.00;99.90;;;-144.05;81.28;125687.94;4963253;29;20035;-89
2022/08/21 02:58:44;;;;;;;18.42;7.20;;;14.90;99.90;;;-144.05;81.64;125687.94;4959868;29;20059;-89
2022/08/21 03:01:11;;;;;;;10.77;6.35;;;14.90;99.90;;;-144.05;81.44;125687.94;4960975;29;20058;-90
2022/08/21 03:03:43;;;;;;;10.93;7.05;;;14.90;99.90;;;-144.05;81.48;125687.94;4943924;29;20031;-91
2022/08/21 03:06:15;;;;;;;13.23;7.25;;;14.90;99.90;;;-144.05;81.49;125687.94;4943298;29;20035;-88
2022/08/21 03:08:44;;;;;;;12.18;6.80;;;14.80;99.90;;;-144.05;81.61;125687.94;4960872;29;20035;-89
2022/08/21 03:11:11;;;;;;;11.68;6.22;;;14.80;99.90;;;-144.05;81.82;125687.94;4941992;29;20031;-90
2022/08/21 03:13:38;;;;;;;13.77;6.28;;;14.70;99.90;;;-144.05;81.96;125687.94;4934233;29;20031;-87
2022/08/21 03:16:06;;;;;;;10.48;6.30;;;14.70;99.90;;;-144.05;82.26;125687.94;4955051;29;20027;-87
2022/08/21 03:18:32;;;;;;;11.77;7.18;;;14.60;99.90;;;-144.05;82.40;125687.94;4954985;29;20118;-88
2022/08/21 03:20:58;;;;;;;13.00;6.50;;;14.60;99.90;;;-144.05;82.64;125687.94;4923295;29;20059;-90
2022/08/21 03:23:24;;;;;;;13.15;6.47;;;14.50;99.90;;;-144.05;82.86;125687.94;4940368;29;20049;-89
2022/08/21 03:25:50;;;;;;;9.98;7.18;;;14.40;99.90;;;-144.05;82.94;125687.94;4923212;29;20032;-89
2022/08/21 03:28:22;;;;;;;12.63;7.18;;;14.40;99.90;;;-144.05;83.14;125687.94;4940752;29;20091;-90
2022/08/21 03:30:51;;;;;;;11.25;6.95;;;14.40;99.90;;;-144.05;83.29;125687.94;4924271;29;20066;-89
2022/08/21 03:33:19;;;;;;;10.45;6.93;;;14.40;99.90;;;-144.05;83.59;125687.94;4924543;29;20403;-87
2022/08/21 03:35:56;;;;;;;19.38;9.20;;;14.30;99.90;;;-144.05;83.71;125687.94;4942057;29;20087;-87
2022/08/21 03:38:23;;;;;;;15.75;7.50;;;14.40;99.90;;;-144.05;83.79;125687.94;4957597;29;20055;-91
2022/08/21 03:40:49;;;;;;;15.32;7.63;;;14.30;99.90;;;-144.05;83.84;125687.94;4927009;29;20028;-88
2022/08/21 03:43:15;;;;;;;13.23;7.78;;;14.30;99.90;;;-144.05;83.95;125687.94;4928650;29;20055;-89
2022/08/21 03:45:41;;;;;;;16.80;7.55;;;14.20;99.90;;;-144.05;84.01;125687.94;4929733;29;20039;-87
2022/08/21 03:48:09;;;;;;;12.25;7.43;;;14.20;99.90;;;-144.05;84.22;125687.94;4925329;29;20496;-88
2022/08/21 03:50:42;;;;;;;13.40;7.75;;;14.20;99.90;;;-144.05;84.19;125687.94;4943592;29;20123;-90
2022/08/21 03:53:13;;;;;;;10.00;7.18;;;14.10;99.90;;;-144.05;84.06;125687.94;4926263;29;20042;-89
2022/08/21 03:55:39;;;;;;;12.82;7.90;;;14.10;99.90;;;-144.05;84.37;125687.94;4926249;29;20051;-89
2022/08/21 03:58:07;;;;;;;12.15;7.30;;;14.10;99.90;;;-144.05;84.48;125687.94;4926948;29;20396;-90
2022/08/21 04:00:33;;;;;;;11.18;7.20;;;14.10;99.90;;;-144.05;84.52;125687.94;4927476;29;20086;-91
2022/08/21 04:03:00;;;;;;;18.95;8.18;;;14.10;99.90;;;-144.05;85.11;125687.94;4949504;29;20028;-90
2022/08/21 04:05:29;;;;;;;17.02;8.07;;;14.00;99.90;;;-144.05;85.20;125687.94;4966849;29;20055;-88
2022/08/21 04:08:04;;;;;;;11.50;8.05;;;14.00;99.90;;;-144.05;85.00;125687.94;4933678;29;20055;-88
2022/08/21 04:10:35;;;;;;;14.15;8.38;;;14.00;99.90;;;-144.05;84.97;125687.94;4954424;29;20043;-87
2022/08/21 04:13:03;;;;;;;15.75;8.95;;;14.00;99.90;;;-144.05;85.15;125687.94;4923175;29;20497;-87
2022/08/21 04:15:29;;;;;;;16.08;9.25;;;14.00;99.90;;;-144.05;85.66;125687.94;4923383;29;20074;-88
2022/08/21 04:17:55;;;;;;;15.70;8.90;;;14.00;99.90;;;-144.05;85.26;125687.94;4941121;29;20075;-88
2022/08/21 04:20:24;;;;;;;12.15;8.07;;;14.00;99.90;;;-144.05;85.31;125687.94;4940906;29;20087;-89
2022/08/21 04:22:51;;;;;;;12.85;7.40;;;14.00;99.90;;;-144.05;85.18;125687.94;4924235;29;20065;-87
2022/08/21 04:25:22;;;;;;;10.65;7.18;;;13.90;99.90;;;-144.05;85.07;125687.94;4955716;29;20079;-88
2022/08/21 04:27:50;;;;;;;12.75;8.30;;;14.00;99.90;;;-144.05;85.14;125687.94;4942698;29;20040;-88
2022/08/21 04:30:17;;;;;;;12.75;7.45;;;13.90;99.90;;;-144.05;85.09;125687.94;4942434;29;20024;-88
2022/08/21 04:32:50;;;;;;;12.93;8.27;;;13.90;99.90;;;-144.05;85.29;125687.94;4941753;29;20035;-86
2022/08/21 04:35:22;;;;;;;17.38;8.20;;;13.90;99.90;;;-144.05;85.35;125687.94;4942627;29;20032;-87
2022/08/21 04:37:49;;;;;;;14.57;8.45;;;13.80;99.90;;;-144.05;85.14;125687.94;4942397;29;20064;-87
2022/08/21 04:40:18;;;;;;;12.57;7.85;;;13.80;99.90;;;-144.05;85.27;125687.94;4942510;29;20079;-86
2022/08/21 04:43:02;;;;;;;13.88;8.55;;;13.80;99.90;;;-144.05;85.49;125687.94;4974256;28;20032;-89
2022/08/21 04:45:47;;;;;;;14.80;9.40;;;13.80;99.90;;;-144.05;85.54;125687.94;4942323;29;20035;-87
2022/08/21 04:48:17;;;;;;;12.75;8.35;;;13.70;99.90;;;-144.05;85.59;125687.94;4941805;29;20111;-89
2022/08/21 04:51:07;;;;;;;12.10;8.65;;;13.80;99.90;;;-144.05;85.31;125687.94;4942208;29;20067;-86
2022/08/21 04:53:52;;;;;;;16.85;8.38;;;13.80;99.90;;;-144.05;85.02;125687.94;4940926;29;20024;-88
2022/08/21 04:56:28;;;;;;;12.30;8.30;;;13.80;99.90;;;-144.05;85.09;125687.94;4955980;29;20087;-89
2022/08/21 04:59:02;;;;;;;13.45;8.60;;;13.80;99.90;;;-144.05;85.32;125687.94;4927967;29;20394;-90
2022/08/21 05:01:34;;;;;;;17.10;9.73;;;13.80;99.90;;;-144.05;85.84;125687.94;4928469;29;20055;-89
2022/08/21 05:04:07;;;;;;;11.77;8.40;;;13.80;99.90;;;-144.05;85.67;125687.94;4960745;29;20032;-88
2022/08/21 05:06:41;;;;;;;16.90;8.95;;;13.80;99.90;;;-144.05;85.75;125687.94;4929037;29;20038;-89
2022/08/21 05:09:09;;;;;;;19.33;9.85;;;13.90;99.90;;;-144.05;86.10;125687.94;4927078;29;20042;-90
2022/08/21 05:11:37;;;;;;;15.40;8.82;;;14.00;99.90;;;-144.05;85.62;125687.94;4928250;29;20059;-91
2022/08/21 05:14:04;;;;;;;14.50;8.02;;;14.10;99.90;;;-144.05;85.30;125687.94;4938906;29;20481;-91
2022/08/21 05:16:30;;;;;;;14.82;9.57;;;14.20;99.90;;;-144.05;85.24;125687.94;4947196;29;20568;-91
2022/08/21 05:18:56;;;;;;;18.38;8.88;;;14.30;99.90;;;-144.05;84.99;125687.94;4964353;29;20508;-91
2022/08/21 05:21:21;;;;;;;18.45;9.70;;;14.30;99.90;;;-144.05;84.91;125687.94;4946999;29;20031;-90
2022/08/21 05:23:47;;;;;;;14.80;8.82;;;14.40;99.90;;;-144.05;84.42;125687.94;4946413;29;20042;-91
2022/08/21 05:26:13;;;;;;;13.77;8.90;;;14.50;99.90;;;-144.05;84.12;125687.94;4963182;29;20058;-91
2022/08/21 05:28:39;;;;;;;14.63;8.73;;;14.60;99.90;;;-144.05;83.76;125687.94;4946326;29;20038;-88
2022/08/21 05:31:05;;;;;;;14.20;9.25;;;14.70;99.90;;;-144.05;83.45;125687.94;4947024;29;20031;-90
2022/08/21 05:33:31;;;;;;;17.15;9.10;;;14.80;99.90;;;-144.05;83.17;125687.94;4964228;28;20039;-90
2022/08/21 05:35:58;;;;;;;15.10;9.25;;;14.90;99.90;;;-144.05;82.80;125687.94;4966659;29;20036;-88
2022/08/21 05:38:27;;;;;;;14.25;8.63;;;15.00;99.90;;;-144.05;82.55;125687.94;4950299;29;20058;-89
2022/08/21 05:40:54;;;;;;;12.52;7.88;;;15.10;99.90;;;-144.05;82.29;125687.94;4968084;29;20087;-88
2022/08/21 05:43:20;;;;;;;13.38;7.90;;;15.20;99.90;;;-144.05;81.63;125687.94;4965885;29;20059;-91
2022/08/21 05:45:48;;;;;;;15.20;7.72;;;15.40;99.90;;;-144.05;80.38;125687.94;4950306;29;20477;-90
2022/08/21 05:48:22;;;;;;;9.50;7.20;;;15.40;99.90;;;-144.05;79.25;125687.94;4950220;29;20053;-92
2022/08/21 05:50:51;;;;;;;14.60;7.28;;;15.60;99.90;;;-144.05;79.36;125687.94;4967506;29;20027;-93
2022/08/21 05:53:20;;;;;;;8.98;6.25;;;15.80;99.90;;;-144.05;78.38;125687.94;4968665;29;20031;-90
2022/08/21 05:55:48;;;;;;;15.15;6.50;;;15.90;99.90;;;-144.05;76.88;125687.94;4969004;29;20094;-89
2022/08/21 05:58:19;;;;;;;10.93;6.00;;;16.00;99.90;;;-144.05;76.52;125687.94;4949346;29;20073;-89
2022/08/21 06:00:49;;;;;;;7.68;5.22;;;16.10;99.90;;;-144.05;75.85;125687.94;4964840;29;20050;-89
2022/08/21 06:03:25;;;;;;;12.00;5.47;;;16.40;99.90;;;-144.05;74.63;125687.94;4965178;29;20031;-90
2022/08/21 06:05:53;;;;;;;11.75;5.70;;;16.60;99.90;;;-144.05;73.05;125687.94;4948749;29;20043;-89
2022/08/21 06:08:21;;;;;;;10.05;4.95;;;16.90;99.90;;;-144.05;72.11;125687.94;4964090;29;20057;-89
2022/08/21 06:10:51;;;;;;;7.78;5.32;;;17.20;99.90;;;-144.05;70.57;125687.94;4964333;29;20031;-87
2022/08/21 06:13:20;;;;;;;8.77;4.82;;;17.50;99.90;;;-144.05;69.25;125687.94;4945545;29;20095;-90
2022/08/21 06:15:46;;;;;;;8.60;4.82;;;17.80;99.90;;;-144.05;67.51;125687.94;4928760;29;20063;-87
2022/08/21 06:18:13;;;;;;;7.43;4.13;;;18.00;99.90;;;-144.05;66.99;125687.94;4929234;29;20024;-88
2022/08/21 06:20:40;;;;;;;10.73;4.85;;;18.30;99.90;;;-144.05;65.55;125687.94;4946394;29;20060;-89
2022/08/21 06:23:12;;;;;;;7.38;4.07;;;18.70;99.90;;;-144.05;65.24;125687.94;4928539;29;20040;-85
2022/08/21 06:25:50;;;;;;;38.05;20.23;;;18.90;99.90;;;-144.05;64.08;125687.94;4929894;29;20051;-89
2022/08/21 06:28:16;;;;;;;32.95;18.73;;;19.10;99.90;;;-144.05;64.29;125687.94;4944490;29;20097;-87
2022/08/21 06:30:42;;;;;;;23.23;14.00;;;19.30;99.90;;;-144.05;63.24;125687.94;4928020;29;20042;-90
2022/08/21 06:33:08;;;;;;;23.33;14.05;;;19.50;99.90;;;-144.05;62.50;125687.94;4928677;29;20035;-88
2022/08/21 06:35:36;;;;;;;20.10;11.88;;;19.60;99.90;;;-144.05;62.19;125687.94;4926613;29;20051;-85
2022/08/21 06:38:02;;;;;;;22.30;10.77;;;19.80;99.90;;;-144.05;60.04;125687.94;4926419;29;20036;-86
2022/08/21 06:40:30;;;;;;;16.00;9.50;;;20.00;99.90;;;-144.05;60.00;125687.94;4929167;29;20047;-87
2022/08/21 06:43:09;;;;;;;19.33;6.88;;;20.20;99.90;;;-144.05;59.04;125687.94;4947084;23;20196;-86
2022/08/21 06:45:35;;;;;;;13.70;5.65;;;20.30;99.90;;;-144.05;58.98;125687.94;4932128;29;20107;-88
2022/08/21 06:48:01;;;;;;;13.88;5.53;;;20.50;99.90;;;-144.05;58.29;125687.94;4939469;29;20051;-87
2022/08/21 06:50:28;;;;;;;8.82;4.30;;;20.60;99.90;;;-144.05;57.71;125687.94;4945974;29;20035;-86
2022/08/21 06:53:09;;;;;;;10.23;4.72;;;20.80;99.90;;;-144.05;56.16;125687.94;4927678;29;20050;-88
2022/08/21 06:55:37;;;;;;;14.35;4.63;;;21.00;99.90;;;-144.05;55.46;125687.94;4927695;29;20027;-90
2022/08/21 06:58:04;;;;;;;9.80;4.25;;;21.10;99.90;;;-144.05;55.23;125687.94;4943944;29;20115;-89
2022/08/21 07:00:34;;;;;;;10.93;4.57;;;21.30;99.90;;;-144.05;54.58;125687.94;4943926;29;20032;-89
2022/08/21 07:03:00;;;;;;;12.90;4.88;;;21.50;99.90;;;-144.05;54.32;125687.94;4927432;29;20038;-91
2022/08/21 07:05:29;;;;;;;8.52;4.47;;;21.70;99.90;;;-144.05;52.80;125687.94;4926050;29;20031;-90
2022/08/21 07:07:56;;;;;;;8.98;4.65;;;21.80;99.90;;;-144.05;52.15;125687.94;4926534;29;20375;-89
2022/08/21 07:10:25;;;;;;;9.77;4.70;;;21.90;99.90;;;-144.05;52.41;125687.94;4925651;29;20413;-86
2022/08/21 07:12:52;;;;;;;11.70;5.25;;;21.80;99.90;;;-144.05;52.66;125687.94;4941387;29;20076;-88
2022/08/21 07:15:18;;;;;;;12.52;5.50;;;22.00;99.90;;;-144.05;51.61;125687.94;4926262;29;20027;-91
2022/08/21 07:17:44;;;;;;;12.93;5.20;;;22.00;99.90;;;-144.05;51.41;125687.94;4925973;29;20032;-87
2022/08/21 07:20:10;;;;;;;13.27;5.57;;;22.20;99.90;;;-144.05;52.30;125687.94;4943670;29;20508;-88
2022/08/21 07:22:38;;;;;;;9.38;5.43;;;22.00;99.90;;;-144.05;52.59;125687.94;4924648;29;20098;-89
2022/08/21 07:25:07;;;;;;;16.48;6.95;;;22.00;99.90;;;-144.05;52.74;125687.94;4925427;29;20075;-89
2022/08/21 07:27:33;;;;;;;13.50;6.50;;;21.80;99.90;;;-144.05;52.94;125687.94;4924507;29;20031;-88
2022/08/21 07:29:59;;;;;;;16.98;7.35;;;21.90;99.90;;;-144.05;52.75;125687.94;4924324;29;20550;-89
2022/08/21 07:32:25;;;;;;;14.93;6.82;;;21.90;99.90;;;-144.05;53.32;125687.94;4924919;29;20029;-89
2022/08/21 07:34:51;;;;;;;14.55;6.35;;;21.80;99.90;;;-144.05;52.96;125687.94;4924934;29;20391;-88
2022/08/21 07:37:18;;;;;;;13.73;6.25;;;21.80;99.90;;;-144.05;53.32;125687.94;4924740;29;20508;-90
2022/08/21 07:39:48;;;;;;;12.85;6.30;;;21.90;99.90;;;-144.05;53.48;125687.94;4924589;29;20027;-90
2022/08/21 07:42:14;;;;;;;13.60;7.35;;;22.00;99.90;;;-144.05;52.26;125687.94;4924769;29;20094;-88
2022/08/21 07:44:40;;;;;;;14.95;7.20;;;22.20;99.90;;;-144.05;51.22;125687.94;4940591;29;20063;-87
2022/08/21 07:47:06;;;;;;;10.20;6.07;;;22.40;99.90;;;-144.05;51.12;125687.94;4925090;29;20036;-89
2022/08/21 07:49:32;;;;;;;16.88;6.35;;;22.60;99.90;;;-144.05;49.64;125687.94;4926186;29;20051;-89
2022/08/21 07:52:01;;;;;;;13.32;6.45;;;23.00;99.90;;;-144.05;49.28;125687.94;4926981;29;20082;-91
2022/08/21 07:54:27;;;;;;;10.00;5.70;;;23.10;99.90;;;-144.05;48.27;125687.94;4926602;29;20031;-88
2022/08/21 07:56:52;;;;;;;15.10;7.05;;;23.30;99.90;;;-144.05;48.95;125687.94;4942727;29;20119;-89
2022/08/21 07:59:18;;;;;;;15.00;6.95;;;23.20;99.90;;;-144.05;50.11;125687.94;4927176;29;20075;-90
2022/08/21 08:01:44;;;;;;;12.27;6.38;;;23.10;99.90;;;-144.05;50.67;125687.94;4927643;29;20114;-89
2022/08/21 08:04:10;;;;;;;15.82;6.53;;;23.00;99.90;;;-144.05;49.11;125687.94;4929164;29;20059;-91
2022/08/21 08:06:36;;;;;;;14.45;6.60;;;23.10;99.90;;;-144.05;48.71;125687.94;4943695;29;20394;-87
2022/08/21 08:09:03;;;;;;;10.63;6.38;;;23.30;99.90;;;-144.05;48.36;125687.94;4924534;29;20036;-91
2022/08/21 08:11:30;;;;;;;15.65;6.07;;;23.40;99.90;;;-144.05;47.46;125687.94;4941632;29;20127;-87
2022/08/21 08:13:59;;;;;;;14.77;6.55;;;23.70;99.90;;;-144.05;46.50;125687.94;4924628;29;20031;-88
2022/08/21 08:16:26;;;;;;;9.95;6.07;;;23.90;99.90;;;-144.05;47.00;125687.94;4940857;29;20048;-90
2022/08/21 08:18:52;;;;;;;14.38;6.30;;;23.90;99.90;;;-144.05;46.47;125687.94;4941452;29;20094;-87
2022/08/21 08:21:20;;;;;;;13.48;5.88;;;24.10;99.90;;;-144.05;45.75;125687.94;4941574;29;20034;-88
2022/08/21 08:23:47;;;;;;;14.32;6.00;;;24.30;99.90;;;-144.05;45.56;125687.94;4941418;29;20047;-89
2022/08/21 08:26:15;;;;;;;13.48;5.47;;;24.40;99.90;;;-144.05;43.35;125687.94;4924724;29;20060;-89
2022/08/21 08:28:41;;;;;;;11.43;4.88;;;24.90;99.90;;;-144.05;43.05;125687.94;4924026;29;20137;-88
2022/08/21 08:31:08;;;;;;;9.40;3.83;;;24.80;99.90;;;-144.05;42.77;125687.94;4924320;29;20032;-87
2022/08/21 08:33:34;;;;;;;9.95;4.35;;;24.80;99.90;;;-144.05;41.10;125687.94;4924166;29;20499;-90
2022/08/21 08:36:00;;;;;;;15.40;5.05;;;25.00;99.90;;;-144.05;41.81;125687.94;4941561;29;20031;-90
2022/08/21 08:38:26;;;;;;;9.57;4.00;;;24.90;99.90;;;-144.05;41.82;125687.94;4924010;29;20035;-86
2022/08/21 08:41:18;;;;;;;11.20;4.18;;;24.60;99.90;;;-144.05;40.91;125687.94;4923476;29;20028;-90
2022/08/21 08:44:03;;;;;;;6.93;3.00;;;24.70;99.90;;;-144.05;40.60;125687.94;4922711;29;20031;-88
2022/08/21 08:46:45;;;;;;;8.98;3.05;;;24.90;99.90;;;-144.05;38.35;125687.94;4922480;29;20034;-87
2022/08/21 08:49:30;;;;;;;10.02;3.25;;;24.80;99.90;;;-144.05;39.15;125687.94;4921778;29;20138;-88
2022/08/21 08:52:16;;;;;;;9.05;2.80;;;24.80;99.90;;;-144.05;39.28;125687.94;4939655;29;20031;-87
2022/08/21 08:54:56;;;;;;;12.45;3.13;;;25.00;99.90;;;-144.05;38.24;125687.94;4928705;29;20051;-88
2022/08/21 08:57:24;;;;;;;8.95;2.75;;;25.00;99.90;;;-144.05;38.44;125687.94;4950546;29;20039;-89
2022/08/21 09:00:03;;;;;;;7.90;2.28;;;25.20;99.90;;;-144.05;37.90;125687.94;4927199;29;20102;-90
2022/08/21 09:02:29;;;;;;;5.57;2.47;;;25.50;99.90;;;-144.05;37.43;125687.94;4925638;29;20035;-88
2022/08/21 09:04:58;;;;;;;7.57;2.70;;;25.30;99.90;;;-144.05;37.73;125687.94;4943572;29;20058;-88
2022/08/21 09:08:20;;;;;;;9.65;2.70;;;25.10;99.90;;;-144.05;38.26;125687.94;4924741;29;20027;-88
2022/08/21 09:11:18;;;;;;;8.77;2.55;;;24.80;99.90;;;-144.05;37.34;125687.94;4929594;29;20118;-86
2022/08/21 09:14:35;;;;;;;7.55;2.60;;;25.00;99.90;;;-144.05;36.64;125687.94;4934152;29;20039;-89
2022/08/21 09:17:46;;;;;;;5.70;2.50;;;25.30;99.90;;;-144.05;37.65;125687.94;4947759;29;20063;-89
2022/08/21 09:20:59;;;;;;;9.73;2.75;;;25.30;99.90;;;-144.05;38.37;125687.94;4959409;29;20044;-90
2022/08/21 09:23:54;;;;;;;7.72;2.70;;;25.00;99.90;;;-144.05;37.54;125687.94;4935596;29;20063;-90
2022/08/21 09:26:35;;;;;;;9.63;2.45;;;25.30;99.90;;;-144.05;37.32;125687.94;4930271;29;20023;-89
2022/08/21 09:29:01;;;;;;;8.73;2.25;;;25.50;99.90;;;-144.05;37.72;125687.94;4926744;29;20032;-87
2022/08/21 09:31:38;;;;;;;7.82;2.10;;;25.80;99.90;;;-144.05;36.04;125687.94;4927348;29;20031;-88
2022/08/21 09:34:12;;;;;;;8.40;2.40;;;26.30;99.90;;;-144.05;35.85;125687.94;4929017;29;20024;-90
2022/08/21 09:36:50;;;;;;;5.45;2.15;;;26.70;99.90;;;-144.05;34.93;125687.94;4927858;29;20580;-91
2022/08/21 09:39:39;;;;;;;7.07;2.20;;;27.10;99.80;;;-144.05;34.31;125687.94;4928973;29;20032;-92
2022/08/21 09:42:10;;;;;;;7.45;2.90;;;27.30;98.30;;;-144.05;33.89;125687.94;4927399;29;20101;-88
2022/08/21 09:44:43;;;;;;;7.82;2.13;;;27.30;96.20;;;-144.05;35.26;125687.94;4930485;29;20087;-87
2022/08/21 09:47:12;;;;;;;6.63;1.90;;;27.00;98.30;;;-144.05;35.20;125687.94;4928160;29;20043;-88
2022/08/21 09:49:42;;;;;;;8.10;2.38;;;27.00;98.40;;;-144.05;35.57;125687.94;4943581;29;20529;-87
2022/08/21 09:52:25;;;;;;;7.03;2.33;;;26.60;97.90;;;-144.05;35.64;125687.94;4926366;29;20078;-88
2022/08/21 09:54:55;;;;;;;6.30;2.03;;;26.40;98.20;;;-144.05;36.58;125687.94;4943552;29;20441;-90
2022/08/21 09:57:40;;;;;;;4.60;1.85;;;26.00;99.00;;;-144.05;37.62;125687.94;4942202;29;20134;-91
2022/08/21 10:00:34;;;;;;;5.57;2.20;;;25.80;99.90;;;-144.05;36.17;125687.94;4925270;29;20043;-89
2022/08/21 10:03:18;;;;;;;9.52;2.45;;;25.60;98.40;;;-144.05;36.92;125687.94;4937049;29;20130;-90
2022/08/21 10:06:09;;;;;;;7.55;2.17;;;25.60;99.00;;;-144.05;37.21;125687.94;4926489;29;20035;-89
2022/08/21 10:08:41;;;;;;;9.30;2.42;;;26.00;99.90;;;-144.05;36.03;125687.94;4944754;29;20055;-90
2022/08/21 10:11:16;;;;;;;8.82;1.77;;;26.30;99.20;;;-144.05;35.18;125687.94;4926689;29;20498;-89